SBMTSBCB

Guest
Details From SBMT - MARTE
To SBCB - CABO FRIO
Flight Number -
Tags generated
Created
Modified
Stats Distance 256 nm / 473 km
Max Altitude 29,500 ft / 8,992 m
Waypoints 5
Social Downloads 0
Likes 0
Share VATSIM

Download

Looking for another format? Having issues loading an existing format? Contact us
Advertisement - Login to hide

Notes

Basic altitude profile: - Ascent Rate: 2500ft/min - Ascent Speed: 250kts - Cruise Altitude: 35000ft - Cruise Speed: 420kts - Descent Rate: 1500ft/min - Descent Speed: 250kts Options: - Use NATs: yes - Use PACOTS: yes - Use low airways: yes - Use high airways: yes

Route

SBMT COSME UW63 SCR SBCB

ID Type Via Altitude Latitude Longitude Leg Dist Tot Dist Heading (true) Name
O SBMT APT - 0 ft / 0 m -23.50912˚ -46.63775˚ - 0 nm - MARTE
COSME FIX - 29,500 ft / 8,992 m -23.27683˚ -45.10717˚ 85 nm 85 nm 81° / 80° -
CANO APT UW63 (AWY-HI) 27,200 ft / 8,291 m -23.11883˚ -44.43383˚ 38 nm 123 nm 76° / 76° -
SCR VOR UW63 (AWY-HI) 23,500 ft / 7,163 m -22.94963˚ -43.72768˚ 40 nm 164 nm 76° / 75° -
O SBCB APT - 0 ft / 0 m -22.92168˚ -42.07427˚ 91 nm 255 nm 89° / 89° CABO FRIO

Altitude Profile

Advertisement - Login to hide

Weather


0- 5 10 15 20 25 30 35+ Temperature / ° C

Clouds and Precipitation
Forecast for 2017-12-14 12:00 UTC. Updated an hour ago

Ground ~20,000 ft ~40,000 ft Winds

SBMT

Details ICAO SBMT
Name MARTE
Region Brazil
Timezone America/Sao_Paulo (UTC-2.0)
Stats Elevation 2,368 ft / 722 m (AMSL)
Location -23.509120° -46.637754°
Runways 1
Magnetic Variation 21.325° W

METAR

SBMT 141000Z 09004KT 050V110 9000 BKN011 19/16 Q1020

Decode

TAF

Not found

Departure Runways

ID Width Length Bearing (true) Bearing (mag) Surface Threshold Offset Overrun Length
12 148 ft / 45 m 5,241 ft / 1,597 m 100.34° 121.67° Asphalt 985 ft / 300 m 0 ft / 0 m
30 148 ft / 45 m 5,241 ft / 1,597 m 280.33° 301.66° Asphalt 490 ft / 149 m 0 ft / 0 m

SBCB

Details ICAO SBCB (CFB)
Name CABO FRIO
Region Brazil
Timezone America/Sao_Paulo (UTC-2.0)
Stats Elevation 14 ft / 4 m (AMSL)
Location -22.921681° -42.074268°
Runways 1
Magnetic Variation 23.135° W

METAR

SBCB 141000Z 06008KT 9999 SCT025 BKN040 24/20 Q1019

Decode

TAF

Not found

Destination Runways

ID Width Length Bearing (true) Bearing (mag) Surface Threshold Offset Overrun Length
10 98 ft / 30 m 5,574 ft / 1,699 m 75.53° 98.66° Asphalt 0 ft / 0 m 200 ft / 61 m
28 98 ft / 30 m 5,574 ft / 1,699 m 255.53° 278.66° Asphalt 0 ft / 0 m 200 ft / 61 m